createdAt,value
2019-05-18T00:01:52.301Z,11.60
2019-05-18T00:04:22.153Z,11.50
2019-05-18T00:06:52.048Z,11.50
2019-05-18T00:09:21.986Z,11.60
2019-05-18T00:11:52.420Z,11.50
2019-05-18T00:14:22.404Z,11.40
2019-05-18T00:16:52.389Z,11.30
2019-05-18T00:19:22.313Z,11.10
2019-05-18T00:21:52.664Z,11.10
2019-05-18T00:24:22.610Z,11.00
2019-05-18T00:26:52.518Z,10.90
2019-05-18T00:29:22.440Z,10.90
2019-05-18T00:31:52.297Z,10.60
2019-05-18T00:34:22.506Z,10.50
2019-05-18T00:36:52.405Z,10.30
2019-05-18T00:39:22.413Z,10.10
2019-05-18T00:41:52.241Z,10.10
2019-05-18T00:44:22.099Z,10.10
2019-05-18T00:46:52.014Z,10.00
2019-05-18T00:49:21.934Z,10.00
2019-05-18T00:51:51.840Z,10.00
2019-05-18T00:54:21.878Z,10.00
2019-05-18T00:56:51.794Z,9.90
2019-05-18T00:59:21.719Z,9.90
2019-05-18T01:01:51.616Z,9.90
2019-05-18T01:04:21.538Z,9.30
2019-05-18T01:06:51.462Z,9.80
2019-05-18T01:09:21.471Z,9.30
2019-05-18T01:11:51.337Z,9.80
2019-05-18T01:19:19.654Z,9.80
2019-05-18T01:21:49.558Z,10.30
2019-05-18T01:24:19.520Z,9.60
2019-05-18T01:26:49.402Z,9.60
2019-05-18T01:29:19.408Z,9.70
2019-05-18T01:31:49.544Z,9.60
2019-05-18T01:34:19.467Z,9.60
2019-05-18T01:36:49.318Z,9.60
2019-05-18T01:39:19.253Z,9.50
2019-05-18T01:41:49.153Z,9.60
2019-05-18T01:44:19.099Z,10.20
2019-05-18T01:46:49.023Z,9.80
2019-05-18T01:49:19.228Z,9.80
2019-05-18T01:51:49.162Z,9.10
2019-05-18T01:56:48.341Z,9.40
2019-05-18T01:59:18.598Z,9.60
2019-05-18T02:01:48.757Z,9.50
2019-05-18T02:04:18.735Z,9.60
2019-05-18T02:06:48.666Z,9.60
2019-05-18T02:09:18.584Z,9.50
2019-05-18T02:11:48.506Z,9.50
2019-05-18T02:14:18.425Z,9.50
2019-05-18T02:16:48.341Z,10.00
2019-05-18T02:19:18.425Z,9.50
2019-05-18T02:21:48.545Z,9.20
2019-05-18T02:24:18.450Z,9.50
2019-05-18T02:26:48.422Z,9.20
2019-05-18T02:29:18.434Z,9.40
2019-05-18T02:31:48.361Z,9.80
2019-05-18T02:34:18.279Z,9.40
2019-05-18T02:36:48.206Z,9.50
2019-05-18T02:39:18.130Z,9.40
2019-05-18T02:41:48.073Z,9.40
2019-05-18T02:44:18.203Z,9.10
2019-05-18T02:46:48.114Z,9.60
2019-05-18T02:51:47.260Z,9.30
2019-05-18T02:54:17.557Z,9.30
2019-05-18T02:59:16.997Z,9.20
2019-05-18T03:01:47.221Z,8.90
2019-05-18T03:04:17.111Z,8.80
2019-05-18T03:06:47.062Z,9.00
2019-05-18T03:09:16.991Z,9.00
2019-05-18T03:11:46.927Z,8.70
2019-05-18T03:14:17.194Z,8.70
2019-05-18T03:16:47.167Z,8.70
2019-05-18T03:19:17.104Z,8.50
2019-05-18T03:21:47.026Z,8.60
2019-05-18T03:24:16.939Z,8.60
2019-05-18T03:26:46.950Z,8.60
2019-05-18T03:29:16.862Z,8.80
2019-05-18T03:31:46.786Z,8.60
2019-05-18T03:34:16.703Z,8.50
2019-05-18T03:36:46.941Z,8.50
2019-05-18T03:39:16.773Z,8.50
2019-05-18T03:41:46.741Z,8.30
2019-05-18T03:44:16.670Z,8.50
2019-05-18T03:46:46.587Z,8.50
2019-05-18T03:49:26.049Z,8.00
2019-05-18T03:51:48.047Z,8.50
2019-05-18T03:54:17.986Z,8.50
2019-05-18T03:56:48.621Z,8.50
2019-05-18T03:59:18.509Z,8.30
2019-05-18T04:01:48.449Z,8.40
2019-05-18T04:04:18.719Z,8.40
2019-05-18T04:06:48.798Z,8.50
2019-05-18T04:09:18.711Z,8.60
2019-05-18T04:11:48.667Z,8.50
2019-05-18T04:14:18.563Z,8.60
2019-05-18T04:16:48.813Z,8.50
2019-05-18T04:19:18.748Z,8.50
2019-05-18T04:21:48.998Z,8.70
2019-05-18T04:24:18.868Z,8.60
2019-05-18T04:26:48.907Z,8.60
2019-05-18T04:29:19.081Z,8.60
2019-05-18T04:31:49.023Z,8.70
2019-05-18T04:34:18.922Z,8.80
2019-05-18T04:36:48.850Z,9.00
2019-05-18T04:39:18.848Z,9.10
2019-05-18T04:41:48.782Z,9.20
2019-05-18T04:44:18.681Z,9.20
2019-05-18T04:46:48.605Z,9.40
2019-05-18T04:49:18.532Z,9.40
2019-05-18T04:51:48.458Z,9.50
2019-05-18T04:54:18.427Z,9.50
2019-05-18T04:56:48.607Z,9.40
2019-05-18T04:59:18.515Z,9.30
2019-05-18T05:01:48.543Z,9.40
2019-05-18T05:04:18.464Z,9.50
2019-05-18T05:06:48.529Z,9.50
2019-05-18T05:09:18.441Z,9.80
2019-05-18T05:14:17.573Z,9.90
2019-05-18T05:16:47.471Z,9.90
2019-05-18T05:19:17.753Z,9.90
2019-05-18T05:21:47.577Z,10.10
2019-05-18T05:24:17.474Z,10.30
2019-05-18T05:26:47.316Z,10.30
2019-05-18T05:29:17.237Z,10.40
2019-05-18T05:31:47.098Z,10.40
2019-05-18T05:34:16.976Z,10.70
2019-05-18T05:36:47.201Z,10.90
2019-05-18T05:39:17.147Z,11.10
2019-05-18T05:41:47.079Z,11.00
2019-05-18T05:44:16.997Z,11.20
2019-05-18T05:46:46.839Z,10.90
2019-05-18T05:49:16.770Z,11.10
2019-05-18T05:51:46.677Z,11.10
2019-05-18T05:54:16.627Z,11.20
2019-05-18T05:56:46.518Z,11.40
2019-05-18T05:59:16.442Z,11.70
2019-05-18T06:01:46.367Z,11.90
2019-05-18T06:04:16.328Z,11.90
2019-05-18T06:06:46.237Z,12.00
2019-05-18T06:09:16.519Z,12.20
2019-05-18T06:14:15.773Z,12.90
2019-05-18T06:16:45.711Z,13.10
2019-05-18T06:19:16.000Z,13.10
2019-05-18T06:21:45.958Z,13.30
2019-05-18T06:24:15.824Z,13.50
2019-05-18T06:26:45.778Z,13.30
2019-05-18T06:29:15.738Z,13.50
2019-05-18T06:31:45.659Z,13.20
2019-05-18T06:34:15.577Z,13.60
2019-05-18T06:36:45.490Z,13.70
2019-05-18T06:39:15.435Z,14.00
2019-05-18T06:41:45.343Z,13.80
2019-05-18T06:44:15.398Z,13.60
2019-05-18T06:46:45.262Z,13.80
2019-05-18T06:49:15.226Z,14.00
2019-05-18T06:51:45.118Z,14.20
2019-05-18T06:54:15.062Z,14.00
2019-05-18T06:56:45.007Z,13.90
2019-05-18T06:59:16.598Z,14.20
2019-05-18T07:01:46.550Z,14.20
2019-05-18T07:04:16.474Z,14.40
2019-05-18T07:06:46.378Z,15.60
2019-05-18T07:09:16.351Z,17.40
2019-05-18T07:11:46.242Z,19.20
2019-05-18T07:14:25.203Z,20.00
2019-05-18T07:16:47.750Z,20.10
2019-05-18T07:19:17.703Z,20.80
2019-05-18T07:21:47.643Z,20.10
2019-05-18T07:24:17.607Z,21.50
2019-05-18T07:26:47.519Z,22.10
2019-05-18T07:29:17.459Z,23.10
2019-05-18T07:31:47.705Z,22.70
2019-05-18T07:34:17.630Z,22.90
2019-05-18T07:36:47.534Z,24.30
2019-05-18T07:39:17.508Z,24.40
2019-05-18T07:41:47.432Z,24.40
2019-05-18T07:44:17.358Z,24.90
2019-05-18T07:46:47.297Z,24.20
2019-05-18T07:49:17.191Z,23.40
2019-05-18T07:51:47.099Z,24.10
2019-05-18T07:54:17.044Z,23.60
2019-05-18T07:56:46.949Z,23.80
2019-05-18T07:59:19.768Z,23.20
2019-05-18T08:01:48.326Z,23.50
2019-05-18T08:04:18.254Z,23.10
2019-05-18T08:06:48.205Z,24.00
2019-05-18T08:09:18.208Z,24.50
2019-05-18T08:11:48.147Z,24.60
2019-05-18T08:14:18.030Z,24.10
2019-05-18T08:16:47.989Z,24.60
2019-05-18T08:19:17.842Z,24.30
2019-05-18T08:21:53.062Z,24.40
2019-05-18T08:24:19.642Z,22.80
2019-05-18T08:26:49.598Z,22.90
2019-05-18T08:29:19.522Z,23.50
2019-05-18T08:31:49.453Z,24.30
2019-05-18T08:34:19.364Z,24.80
2019-05-18T08:36:49.314Z,25.50
2019-05-18T08:39:19.210Z,22.60
2019-05-18T08:41:49.231Z,22.60
2019-05-18T08:44:19.098Z,22.00
2019-05-18T08:46:48.985Z,21.40
2019-05-18T08:49:18.907Z,21.00
2019-05-18T08:51:48.855Z,20.60
2019-05-18T08:54:18.781Z,20.50
2019-05-18T08:56:48.724Z,20.00
2019-05-18T08:59:18.717Z,19.90
2019-05-18T09:01:48.652Z,20.30
2019-05-18T09:04:18.511Z,20.70
2019-05-18T09:06:48.485Z,21.10
2019-05-18T09:09:18.393Z,21.10
2019-05-18T09:11:48.274Z,21.20
2019-05-18T09:14:18.197Z,21.70
2019-05-18T09:16:48.522Z,22.20
2019-05-18T09:19:18.492Z,22.10
2019-05-18T09:21:48.429Z,21.90
2019-05-18T09:24:18.293Z,22.70
2019-05-18T09:26:48.322Z,23.50
2019-05-18T09:29:18.297Z,24.60
2019-05-18T09:31:48.225Z,24.90
2019-05-18T09:34:18.133Z,24.70
2019-05-18T09:36:48.304Z,24.60
2019-05-18T09:39:18.217Z,23.90
2019-05-18T09:41:48.801Z,24.00
2019-05-18T09:44:18.801Z,24.20
2019-05-18T09:46:48.742Z,23.80
2019-05-18T09:49:18.661Z,22.70
2019-05-18T09:51:48.592Z,22.70
2019-05-18T09:54:18.550Z,23.10
2019-05-18T09:56:48.506Z,23.00
2019-05-18T09:59:18.405Z,22.70
2019-05-18T10:01:48.396Z,21.90
2019-05-18T10:04:18.546Z,22.10
2019-05-18T10:06:48.493Z,22.50
2019-05-18T10:09:18.556Z,23.10
2019-05-18T10:11:48.476Z,23.60
2019-05-18T10:14:18.407Z,23.70
2019-05-18T10:16:48.360Z,23.90
2019-05-18T10:19:18.309Z,23.90
2019-05-18T10:21:48.235Z,23.90
2019-05-18T10:24:18.376Z,23.60
2019-05-18T10:26:48.379Z,23.40
2019-05-18T10:29:18.308Z,23.20
2019-05-18T10:31:48.521Z,22.90
2019-05-18T10:34:18.445Z,22.50
2019-05-18T10:36:48.435Z,23.00
2019-05-18T10:39:18.366Z,23.30
2019-05-18T10:41:48.332Z,23.50
2019-05-18T10:44:18.382Z,24.20
2019-05-18T10:46:48.394Z,24.10
2019-05-18T10:49:18.311Z,24.50
2019-05-18T10:51:48.250Z,23.80
2019-05-18T10:54:18.142Z,23.10
2019-05-18T10:56:48.062Z,22.50
2019-05-18T10:59:18.094Z,22.30
2019-05-18T11:01:48.035Z,21.70
2019-05-18T11:04:17.978Z,21.20
2019-05-18T11:06:48.321Z,21.20
2019-05-18T11:09:18.273Z,21.20
2019-05-18T11:11:48.213Z,21.20
2019-05-18T11:14:18.955Z,21.20
2019-05-18T11:16:49.111Z,21.40
2019-05-18T11:19:19.059Z,21.40
2019-05-18T11:21:49.076Z,21.50
2019-05-18T11:24:19.270Z,21.60
2019-05-18T11:26:49.248Z,21.40
2019-05-18T11:29:22.978Z,21.40
2019-05-18T11:31:52.557Z,21.50
2019-05-18T11:34:22.451Z,21.50
2019-05-18T11:36:52.682Z,21.50
2019-05-18T11:39:22.634Z,21.40
2019-05-18T11:41:52.585Z,21.40
2019-05-18T11:44:22.530Z,21.20
2019-05-18T11:46:52.505Z,20.70
2019-05-18T11:49:22.541Z,21.00
2019-05-18T11:51:52.483Z,21.00
2019-05-18T11:54:22.418Z,20.80
2019-05-18T11:56:52.491Z,20.90
2019-05-18T11:59:22.397Z,20.90
2019-05-18T12:01:52.570Z,20.90
2019-05-18T12:04:22.733Z,21.00
2019-05-18T12:06:52.722Z,21.00
2019-05-18T12:09:22.921Z,21.10
2019-05-18T12:11:52.913Z,21.10
2019-05-18T12:14:22.930Z,21.10
2019-05-18T12:16:52.901Z,21.20
2019-05-18T12:19:22.873Z,21.20
2019-05-18T12:21:52.792Z,21.20
2019-05-18T12:24:22.913Z,21.70
2019-05-18T12:26:52.913Z,21.80
2019-05-18T12:29:22.839Z,22.00
2019-05-18T12:31:52.939Z,21.90
2019-05-18T12:34:22.865Z,22.10
2019-05-18T12:36:52.833Z,22.10
2019-05-18T12:39:22.753Z,22.70
2019-05-18T12:41:52.767Z,22.90
2019-05-18T12:44:22.693Z,23.00
2019-05-18T12:46:52.794Z,23.50
2019-05-18T12:49:24.094Z,23.70
2019-05-18T12:51:54.921Z,23.90
2019-05-18T12:54:29.532Z,24.00
2019-05-18T12:56:56.700Z,24.10
2019-05-18T12:59:26.749Z,23.90
2019-05-18T13:01:56.720Z,24.00
2019-05-18T13:04:26.642Z,24.00
2019-05-18T13:06:56.569Z,23.70
2019-05-18T13:09:26.499Z,23.50
2019-05-18T13:11:56.474Z,23.50
2019-05-18T13:14:26.425Z,23.70
2019-05-18T13:16:56.346Z,23.50
2019-05-18T13:19:26.311Z,23.60
2019-05-18T13:21:56.602Z,23.50
2019-05-18T13:24:26.561Z,23.40
2019-05-18T13:26:56.538Z,23.40
2019-05-18T13:29:26.441Z,23.50
2019-05-18T13:31:56.416Z,23.50
2019-05-18T13:34:26.365Z,23.40
2019-05-18T13:36:56.522Z,23.50
2019-05-18T13:39:26.494Z,23.20
2019-05-18T13:41:56.499Z,23.10
2019-05-18T13:44:28.229Z,23.10
2019-05-18T13:46:58.497Z,22.90
2019-05-18T13:49:28.583Z,22.60
2019-05-18T13:51:58.530Z,22.50
2019-05-18T13:54:28.435Z,22.40
2019-05-18T13:56:58.370Z,22.30
2019-05-18T13:59:28.318Z,22.00
2019-05-18T14:01:58.254Z,21.90
2019-05-18T14:04:28.174Z,22.00
2019-05-18T14:06:58.148Z,22.00
2019-05-18T14:09:28.055Z,22.00
2019-05-18T14:11:57.970Z,21.90
2019-05-18T14:14:27.918Z,21.60
2019-05-18T14:16:57.848Z,21.60
2019-05-18T14:19:31.193Z,21.40
2019-05-18T14:22:01.086Z,21.40
2019-05-18T14:24:31.330Z,21.60
2019-05-18T14:27:01.287Z,21.50
2019-05-18T14:29:31.254Z,21.70
2019-05-18T14:32:01.242Z,21.90
2019-05-18T14:34:31.174Z,22.30
2019-05-18T14:37:01.156Z,22.40
2019-05-18T14:39:31.076Z,23.00
2019-05-18T14:42:01.010Z,23.40
2019-05-18T14:44:31.678Z,23.70
2019-05-18T14:47:01.618Z,23.70
2019-05-18T14:49:31.542Z,23.80
2019-05-18T14:52:01.509Z,23.70
2019-05-18T14:54:31.518Z,23.60
2019-05-18T14:57:01.514Z,23.60
2019-05-18T14:59:31.426Z,23.70
2019-05-18T15:02:01.349Z,24.10
2019-05-18T15:04:31.290Z,24.10
2019-05-18T15:07:01.298Z,24.10
2019-05-18T15:09:31.299Z,24.00
2019-05-18T15:12:01.285Z,23.80
2019-05-18T15:14:31.221Z,24.10
2019-05-18T15:17:01.475Z,24.30
2019-05-18T15:19:31.441Z,24.40
2019-05-18T15:22:01.412Z,24.50
2019-05-18T15:24:31.360Z,25.30
2019-05-18T15:27:01.341Z,25.30
2019-05-18T15:29:31.257Z,24.70
2019-05-18T15:32:01.185Z,24.70
2019-05-18T15:34:31.157Z,24.90
2019-05-18T15:37:01.106Z,25.10
2019-05-18T15:39:31.117Z,25.80
2019-05-18T15:42:01.061Z,25.80
2019-05-18T15:44:31.093Z,29.70
2019-05-18T15:47:01.001Z,25.10
2019-05-18T15:49:30.989Z,25.10
2019-05-18T15:52:00.943Z,24.30
2019-05-18T15:54:31.101Z,24.10
2019-05-18T15:57:01.075Z,23.70
2019-05-18T15:59:31.053Z,23.30
2019-05-18T16:02:00.995Z,22.90
2019-05-18T16:04:30.922Z,22.90
2019-05-18T16:07:00.847Z,22.90
2019-05-18T16:09:30.710Z,22.90
2019-05-18T16:12:00.642Z,23.00
2019-05-18T16:14:30.562Z,22.90
2019-05-18T16:17:00.477Z,22.70
2019-05-18T16:19:30.677Z,22.60
2019-05-18T16:22:00.607Z,22.40
2019-05-18T16:24:30.577Z,22.30
2019-05-18T16:27:00.426Z,22.20
2019-05-18T16:29:30.302Z,22.30
2019-05-18T16:32:00.636Z,22.30
2019-05-18T16:34:30.546Z,22.30
2019-05-18T16:37:01.256Z,22.20
2019-05-18T16:39:31.206Z,22.30
2019-05-18T16:42:01.172Z,22.10
2019-05-18T16:44:31.125Z,21.80
2019-05-18T16:47:01.050Z,21.80
2019-05-18T16:49:31.210Z,21.80
2019-05-18T16:52:01.154Z,21.80
2019-05-18T16:54:31.045Z,21.70
2019-05-18T16:57:00.899Z,21.40
2019-05-18T16:59:30.832Z,21.40
2019-05-18T17:02:00.759Z,21.30
2019-05-18T17:04:30.698Z,21.30
2019-05-18T17:07:00.623Z,21.30
2019-05-18T17:09:30.654Z,21.10
2019-05-18T17:12:00.546Z,21.00
2019-05-18T17:14:30.500Z,21.00
2019-05-18T17:17:00.459Z,21.00
2019-05-18T17:19:30.626Z,21.00
2019-05-18T17:22:01.090Z,21.00
2019-05-18T17:24:31.364Z,20.90
2019-05-18T17:27:01.368Z,20.90
2019-05-18T17:29:31.336Z,20.90
2019-05-18T17:32:01.294Z,20.80
2019-05-18T17:34:31.258Z,20.70
2019-05-18T17:37:01.188Z,20.50
2019-05-18T17:39:31.244Z,20.40
2019-05-18T17:42:04.829Z,20.40
2019-05-18T17:44:32.775Z,20.30
2019-05-18T17:49:41.753Z,20.10
2019-05-18T17:52:12.058Z,20.10
2019-05-18T17:54:42.007Z,20.00
2019-05-18T17:57:11.991Z,19.90
2019-05-18T17:59:41.922Z,19.80
2019-05-18T18:02:12.059Z,19.80
2019-05-18T18:04:42.023Z,19.80
2019-05-18T18:07:11.919Z,19.70
2019-05-18T18:09:41.833Z,19.60
2019-05-18T18:12:11.762Z,19.60
2019-05-18T18:14:41.749Z,19.50
2019-05-18T18:17:12.010Z,19.40
2019-05-18T18:19:45.157Z,19.30
2019-05-18T18:22:15.425Z,19.00
2019-05-18T18:24:45.403Z,19.20
2019-05-18T18:27:24.585Z,19.10
2019-05-18T18:29:47.307Z,19.00
2019-05-18T18:32:17.289Z,19.00
2019-05-18T18:34:47.451Z,19.00
2019-05-18T18:37:17.439Z,18.90
2019-05-18T18:39:47.477Z,18.80
2019-05-18T18:42:17.422Z,18.80
2019-05-18T18:44:47.385Z,18.70
2019-05-18T18:47:17.365Z,18.60
2019-05-18T18:49:47.334Z,18.50
2019-05-18T18:52:17.322Z,18.40
2019-05-18T18:54:47.263Z,18.40
2019-05-18T18:57:17.207Z,18.30
2019-05-18T18:59:47.159Z,18.20
2019-05-18T19:02:17.449Z,18.20
2019-05-18T19:04:47.410Z,18.20
2019-05-18T19:07:17.278Z,18.10
2019-05-18T19:09:47.300Z,18.00
2019-05-18T19:12:17.376Z,18.00
2019-05-18T19:14:48.562Z,17.90
2019-05-18T19:17:19.087Z,17.80
2019-05-18T19:19:49.128Z,17.70
2019-05-18T19:22:19.195Z,17.70
2019-05-18T19:24:49.252Z,17.60
2019-05-18T19:27:19.655Z,17.50
2019-05-18T19:29:49.566Z,17.40
2019-05-18T19:32:21.729Z,17.30
2019-05-18T19:34:51.595Z,17.90
2019-05-18T19:37:21.575Z,17.30
2019-05-18T19:39:51.460Z,17.30
2019-05-18T19:42:21.602Z,17.20
2019-05-18T19:44:52.665Z,17.10
2019-05-18T19:47:23.047Z,17.10
2019-05-18T19:49:52.961Z,17.00
2019-05-18T19:52:22.892Z,17.10
2019-05-18T19:54:52.966Z,16.90
2019-05-18T19:57:22.956Z,17.00
2019-05-18T19:59:52.886Z,17.00
2019-05-18T20:02:22.891Z,16.90
2019-05-18T20:05:06.617Z,16.90
2019-05-18T20:07:24.760Z,16.80
2019-05-18T20:09:54.742Z,16.70
2019-05-18T20:12:24.710Z,16.70
2019-05-18T20:14:55.743Z,16.60
2019-05-18T20:17:25.666Z,16.60
2019-05-18T20:19:55.601Z,16.50
2019-05-18T20:22:25.561Z,16.40
2019-05-18T20:24:55.518Z,16.40
2019-05-18T20:27:25.576Z,16.30
2019-05-18T20:29:55.590Z,16.20
2019-05-18T20:32:25.686Z,16.20
2019-05-18T20:34:55.557Z,16.10
2019-05-18T20:37:25.655Z,16.00
2019-05-18T20:39:55.545Z,16.00
2019-05-18T20:42:25.473Z,16.00
2019-05-18T20:44:55.322Z,15.90
2019-05-18T20:47:25.315Z,15.90
2019-05-18T20:49:55.195Z,15.90
2019-05-18T20:52:25.138Z,15.80
2019-05-18T20:54:55.408Z,15.70
2019-05-18T20:57:25.333Z,15.70
2019-05-18T20:59:55.266Z,15.60
2019-05-18T21:02:25.250Z,15.60
2019-05-18T21:14:53.580Z,15.70
2019-05-18T21:17:23.613Z,15.10
2019-05-18T21:22:22.790Z,15.10
2019-05-18T21:27:22.073Z,14.90
2019-05-18T21:29:51.995Z,14.80
2019-05-18T21:32:21.930Z,14.70
2019-05-18T21:34:52.229Z,15.10
2019-05-18T21:37:22.433Z,14.30
2019-05-18T21:39:52.338Z,14.70
2019-05-18T21:42:22.257Z,14.20
2019-05-18T21:47:21.377Z,14.30
2019-05-18T21:49:51.283Z,13.70
2019-05-18T21:52:21.237Z,14.30
2019-05-18T21:57:20.943Z,13.70
2019-05-18T21:59:51.139Z,13.90
2019-05-18T22:09:49.502Z,14.30
2019-05-18T22:12:19.710Z,13.90
2019-05-18T22:17:18.967Z,14.10
2019-05-18T22:24:47.425Z,13.60
2019-05-18T22:27:17.344Z,13.50
2019-05-18T22:29:47.278Z,13.40
2019-05-18T22:34:47.897Z,13.80
2019-05-18T22:37:17.845Z,13.60
2019-05-18T22:39:48.034Z,13.60
2019-05-18T22:42:17.974Z,14.20
2019-05-18T22:44:47.927Z,13.60
2019-05-18T22:47:18.217Z,13.40
2019-05-18T22:49:48.157Z,13.30
2019-05-18T22:52:20.378Z,13.40
2019-05-18T22:54:50.297Z,13.30
2019-05-18T22:57:20.218Z,13.30
2019-05-18T23:02:19.724Z,13.20
2019-05-18T23:04:49.647Z,13.10
2019-05-18T23:17:18.011Z,13.30
2019-05-18T23:22:17.188Z,12.40
2019-05-18T23:24:47.092Z,12.50
2019-05-18T23:27:17.106Z,12.30
2019-05-18T23:29:47.075Z,12.60
2019-05-18T23:32:18.046Z,12.60
2019-05-18T23:34:47.968Z,12.70
2019-05-18T23:37:17.916Z,12.40
2019-05-18T23:39:48.140Z,12.30
2019-05-18T23:42:18.083Z,12.30
2019-05-18T23:44:47.996Z,12.30
2019-05-18T23:47:17.936Z,12.30
2019-05-18T23:49:47.849Z,12.00
2019-05-18T23:52:17.935Z,11.60
2019-05-18T23:54:47.835Z,11.90
2019-05-18T23:57:17.770Z,11.80
2019-05-18T23:59:47.612Z,11.70
